Time;durP1;ratioP1;P1;durP2;ratioP2;P2;SDS_P1;SDS_P2;PMS_P1;PMS_P2;Temp;Humidity;BMP_temperature;BMP_pressure;BME280_temperature;BME280_humidity;BME280_pressure;Samples;Min_cycle;Max_cycle;Signal;HPM_P1;HPM_P2
2022/12/29 13:59:19;;;;;;;;;;;;;;;;;;2202189;59;1569;-72
2022/12/29 14:01:57;;;;;;;;;;;;;;;;;;2200578;59;13533;-71
2022/12/29 14:04:32;;;;;;;;;;;;;;;;;;2200098;59;29202;-71
2022/12/29 16:17:52;;;;;;;;;;;;;;;;;;2294955;53;2005;-72
2022/12/29 16:20:28;;;;;;;;;;;;;;;;;;2199933;59;12706;-71
2022/12/29 16:23:02;;;;;;;;;;;;;;;;;;2200012;59;2472;-72
2022/12/29 16:25:37;;;;;;;;;;;;;;;;;;2200374;59;12265;-71
2022/12/29 16:28:18;;;;;;;;;;;;;;;;;;2201113;59;21543;-72
2022/12/29 16:52:26;;;;;;;;;;;;;;;;;;2264743;53;2749;-71
2022/12/29 16:55:00;;;;;;;;;;;;;;;;;;2200768;59;12515;-71
2022/12/29 16:57:36;;;;;;;;;;;;;;;;;;2201627;59;12883;-71
2022/12/29 17:00:19;;;;;;;;;;;;;;;;;;2202833;59;13489;-71
2022/12/29 17:02:55;;;;;;;;;;;;;;;;;;2204041;59;15193;-71
2022/12/29 17:05:28;;;;;;;;;;;;;;;;;;2201395;59;13016;-72
2022/12/29 17:18:44;;;;;;;;;;;;;;;;;;2222929;53;11886;-72
2022/12/29 17:21:17;;;;;;;;;;;;;;;;;;2197100;59;15853;-71
2022/12/29 17:23:50;;;;;;;;;;;;;;;;;;2197959;67;15382;-71
2022/12/29 17:26:23;;;;;;;;;;;;;;;;;;2198662;64;14275;-72
2022/12/29 17:28:56;;;;;;;;;;;;;;;;;;2198593;59;12064;-71
2022/12/29 17:31:29;;;;;;;;;;;;;;;;;;2198224;59;13519;-71
2022/12/29 17:34:05;;;;;;;;;;;;;;;;;;2198806;59;17452;-71
2022/12/29 17:36:38;;;;;;;;;;;;;;;;;;2198161;67;18710;-71
2022/12/29 17:39:12;;;;;;;;;;;;;;;;;;2199743;60;16527;-71
2022/12/29 17:41:45;;;;;;;;;;;;;;;;;;2197984;59;19404;-71
2022/12/29 17:44:20;;;;;;;;;;;;;;;;;;2199413;59;15332;-73
2022/12/29 17:46:53;;;;;;;;;;;;;;;;;;2198327;67;18901;-72
2022/12/29 17:49:29;;;;;;;;;;;;;;;;;;2197907;59;16784;-71
2022/12/29 17:52:02;;;;;;;;;;;;;;;;;;2199692;59;19134;-71
2022/12/29 17:54:36;;;;;;;;;;;;;;;;;;2198536;67;16478;-71
2022/12/29 17:57:11;;;;;;;;;;;;;;;;;;2199410;59;29079;-71
2022/12/29 17:59:44;;;;;;;;;;;;;;;;;;2198609;59;21129;-71
2022/12/29 18:02:26;;;;;;;;;;;;;;;;;;2196978;59;17130;-70
2022/12/29 18:05:01;;;;;;;;;;;;;;;;;;2197060;59;24112;-71
2022/12/29 18:07:34;;;;;;;;;;;;;;;;;;2196618;59;17617;-71
2022/12/29 18:10:08;;;;;;;;;;;;;;;;;;2198881;59;18752;-71
2022/12/29 18:12:42;;;;;;;;;;;;;;;;;;2197718;59;15975;-71
2022/12/29 18:15:19;;;;;;;;;;;;;;;;;;2199343;67;16377;-71
2022/12/29 18:17:55;;;;;;;;;;;;;;;;;;2197948;59;20333;-71
2022/12/29 18:20:32;;;;;;;;;;;;;;;;;;2198263;59;18093;-71
2022/12/29 18:23:05;;;;;;;;;;;;;;;;;;2199433;60;13005;-71
2022/12/29 18:25:41;;;;;;;;;;;;;;;;;;2199409;59;14756;-71
2022/12/29 18:31:22;;;;;;;;;;;;;;;;;;2200976;59;2381;-71
2022/12/29 18:33:55;;;;;;;;;;;;;;;;;;2204321;67;1248;-71
2022/12/29 18:36:31;;;;;;;;;;;;;;;;;;2205233;67;1240;-71
2022/12/29 18:39:04;;;;;;;;;;;;;;;;;;2204221;59;1353;-71
2022/12/29 22:36:00;;;;;;;;;;;;;;;;;;2198847;59;1554;-72
2022/12/29 22:38:34;;;;;;;;;;;;;;;;;;2200223;59;1431;-72
2022/12/29 22:41:07;;;;;;;;;;;;;;;;;;2201555;67;1240;-72
2022/12/29 22:43:40;;;;;;;;;;;;;;;;;;2201839;67;1141;-72
2022/12/29 22:46:13;;;;;;;;;;;;;;;;;;2200020;67;1621;-72
2022/12/29 22:59:29;;;;;;;;;;;;;;;;;;2373593;54;1669;-72
2022/12/29 23:02:02;;;;;;;;;;;;;;;;;;2204654;59;2538;-72
2022/12/29 23:04:36;;;;;;;;;;;;;;;;;;2205393;59;1460;-71
2022/12/29 23:07:09;;;;;;;;;;;;;;;;;;2205754;59;1110;-72
2022/12/29 23:09:42;;;;;;;;;;;;;;;;;;2205728;67;1992;-73
2022/12/29 23:12:15;;;;;;;;;;;;;;;;;;2205799;67;1211;-72
2022/12/29 23:14:51;;;;;;;;;;;;;;;;;;2205672;59;1088;-71
2022/12/29 23:17:24;;;;;;;;;;;;;;;;;;2206045;67;1152;-72
2022/12/29 23:19:57;;;;;;;;;;;;;;;;;;2205759;67;1324;-71
2022/12/29 23:22:30;;;;;;;;;;;;;;;;;;2205631;59;1136;-72
2022/12/29 23:25:03;;;;;;;;;;;;;;;;;;2205601;67;1327;-72
2022/12/29 23:27:36;;;;;;;;;;;;;;;;;;2205830;67;1246;-72
2022/12/29 23:30:13;;;;;;;;;;;;;;;;;;2205595;67;1939;-72
2022/12/29 23:32:46;;;;;;;;;;;;;;;;;;2205771;59;1224;-72
2022/12/29 23:35:19;;;;;;;;;;;;;;;;;;2205803;67;1176;-72
2022/12/29 23:37:52;;;;;;;;;;;;;;;;;;2205491;59;1357;-72
2022/12/29 23:40:25;;;;;;;;;;;;;;;;;;2206079;67;1301;-72
2022/12/29 23:42:58;;;;;;;;;;;;;;;;;;2205876;67;1174;-72
2022/12/29 23:45:36;;;;;;;;;;;;;;;;;;2206028;67;1119;-72
2022/12/29 23:48:09;;;;;;;;;;;;;;;;;;2205786;67;1989;-72
2022/12/29 23:50:43;;;;;;;;;;;;;;;;;;2206122;67;1245;-71
2022/12/29 23:53:16;;;;;;;;;;;;;;;;;;2205489;67;1282;-72
2022/12/29 23:55:53;;;;;;;;;;;;;;;;;;2205293;67;1136;-72
2022/12/29 23:58:26;;;;;;;;;;;;;;;;;;2205256;67;1001;-72
